createdAt,value
2023-04-25T05:03:04.385Z,500.00
2023-04-25T05:04:05.320Z,500.00
2023-04-25T05:05:05.180Z,500.00
2023-04-25T05:06:05.221Z,500.00
2023-04-25T05:07:05.225Z,500.00
2023-04-25T05:08:05.279Z,500.00
2023-04-25T05:09:05.320Z,400.00
2023-04-25T05:10:04.428Z,400.00
2023-04-25T05:11:05.355Z,400.00
2023-04-25T05:12:05.365Z,400.00
2023-04-25T05:13:04.365Z,400.00
2023-04-25T05:14:04.403Z,400.00
2023-04-25T05:15:04.437Z,400.00
2023-04-25T05:16:05.574Z,400.00
2023-04-25T05:17:04.540Z,400.00
2023-04-25T05:18:05.659Z,400.00
2023-04-25T05:19:05.634Z,400.00
2023-04-25T05:20:05.712Z,400.00
2023-04-25T05:21:05.770Z,400.00
2023-04-25T05:22:05.822Z,400.00
2023-04-25T05:23:05.889Z,400.00
2023-04-25T05:24:05.929Z,400.00
2023-04-25T05:25:04.980Z,433.00
2023-04-25T05:26:05.027Z,470.00
2023-04-25T05:27:06.093Z,498.00
2023-04-25T05:28:05.159Z,500.00
2023-04-25T05:29:05.217Z,502.00
2023-04-25T05:30:05.263Z,500.00
2023-04-25T05:31:06.327Z,503.00
2023-04-25T05:32:05.457Z,500.00
2023-04-25T05:33:06.452Z,503.00
2023-04-25T05:34:06.522Z,502.00
2023-04-25T05:35:06.575Z,500.00
2023-04-25T05:36:05.623Z,498.00
2023-04-25T05:37:05.691Z,500.00
2023-04-25T05:38:06.726Z,501.00
2023-04-25T05:39:06.769Z,500.00
2023-04-25T05:40:06.855Z,505.00
2023-04-25T05:41:05.896Z,502.00
2023-04-25T05:42:06.989Z,503.00
2023-04-25T05:43:07.021Z,508.00
2023-04-25T05:44:07.069Z,500.00
2023-04-25T05:45:07.124Z,502.00
2023-04-25T05:46:07.193Z,503.00
2023-04-25T05:47:07.237Z,503.00
2023-04-25T05:48:06.375Z,505.00
2023-04-25T05:49:06.373Z,504.00
2023-04-25T05:50:07.440Z,502.00
2023-04-25T05:51:07.451Z,505.00
2023-04-25T05:52:07.496Z,498.00
2023-04-25T05:53:07.547Z,503.00
2023-04-25T05:54:09.191Z,504.00
2023-04-25T05:55:07.780Z,507.00
2023-04-25T05:56:07.832Z,504.00
2023-04-25T05:57:07.867Z,500.00
2023-04-25T05:58:08.004Z,505.00
2023-04-25T05:59:08.058Z,505.00
2023-04-25T06:00:08.038Z,502.00
2023-04-25T06:01:08.095Z,502.00
2023-04-25T06:02:08.244Z,505.00
2023-04-25T06:03:08.551Z,509.00
2023-04-25T06:04:08.537Z,506.00
2023-04-25T06:05:08.533Z,508.00
2023-04-25T06:06:08.499Z,509.00
2023-04-25T06:07:08.400Z,501.00
2023-04-25T06:08:08.445Z,500.00
2023-04-25T06:09:08.490Z,500.00
2023-04-25T06:10:08.557Z,500.00
2023-04-25T06:11:07.598Z,512.00
2023-04-25T06:12:08.655Z,507.00
2023-04-25T06:13:07.722Z,513.00
2023-04-25T06:14:08.774Z,502.00
2023-04-25T06:15:20.149Z,501.00
2023-04-25T06:16:08.861Z,502.00
2023-04-25T06:17:07.826Z,503.00
2023-04-25T06:18:07.860Z,501.00
2023-04-25T06:19:08.811Z,498.00
2023-04-25T06:20:08.814Z,500.00
2023-04-25T06:21:08.798Z,500.00
2023-04-25T06:22:07.818Z,502.00
2023-04-25T06:23:07.774Z,504.00
2023-04-25T06:24:07.772Z,501.00
2023-04-25T06:25:08.757Z,502.00
2023-04-25T06:26:08.751Z,503.00
2023-04-25T06:27:08.757Z,501.00
2023-04-25T06:28:07.728Z,509.00
2023-04-25T06:29:07.736Z,507.00
2023-04-25T06:30:08.717Z,500.00
2023-04-25T06:31:08.777Z,506.00
2023-04-25T06:32:07.719Z,509.00
2023-04-25T06:33:08.814Z,503.00
2023-04-25T06:34:08.705Z,509.00
2023-04-25T06:35:07.687Z,505.00
2023-04-25T06:36:07.701Z,507.00
2023-04-25T06:37:08.674Z,503.00
2023-04-25T06:38:07.800Z,510.00
2023-04-25T06:39:07.683Z,505.00
2023-04-25T06:40:08.720Z,514.00
2023-04-25T06:41:07.767Z,506.00
2023-04-25T06:42:08.831Z,506.00
2023-04-25T06:43:08.881Z,501.00
2023-04-25T06:44:08.944Z,508.00
2023-04-25T06:45:08.984Z,506.00
2023-04-25T06:46:08.060Z,500.00
2023-04-25T06:47:09.193Z,514.00
2023-04-25T06:48:09.199Z,509.00
2023-04-25T06:49:10.248Z,513.00
2023-04-25T06:50:09.251Z,511.00
2023-04-25T06:51:09.282Z,521.00
2023-04-25T06:52:09.740Z,513.00
2023-04-25T06:53:09.386Z,516.00
2023-04-25T06:54:08.466Z,514.00
2023-04-25T06:55:09.472Z,513.00
2023-04-25T06:56:08.540Z,514.00
2023-04-25T06:57:09.732Z,520.00
2023-04-25T06:58:09.620Z,507.00
2023-04-25T06:59:09.678Z,518.00
2023-04-25T07:00:09.724Z,517.00
2023-04-25T07:01:09.797Z,525.00
2023-04-25T07:02:08.921Z,521.00
2023-04-25T07:03:09.995Z,519.00
2023-04-25T07:04:09.148Z,527.00
2023-04-25T07:05:09.973Z,531.00
2023-04-25T07:06:10.008Z,530.00
2023-04-25T07:07:09.049Z,529.00
2023-04-25T07:08:10.097Z,521.00
2023-04-25T07:09:10.171Z,532.00
2023-04-25T07:10:09.218Z,536.00
2023-04-25T07:11:10.280Z,536.00
2023-04-25T07:12:10.318Z,535.00
2023-04-25T07:13:10.372Z,530.00
2023-04-25T07:14:10.421Z,537.00
2023-04-25T07:15:10.476Z,533.00
2023-04-25T07:16:10.561Z,534.00
2023-04-25T07:17:09.564Z,537.00
2023-04-25T07:18:09.659Z,531.00
2023-04-25T07:19:10.666Z,534.00
2023-04-25T07:20:10.735Z,526.00
2023-04-25T07:21:09.865Z,534.00
2023-04-25T07:22:09.876Z,526.00
2023-04-25T07:23:10.860Z,538.00
2023-04-25T07:24:10.910Z,534.00
2023-04-25T07:25:10.951Z,535.00
2023-04-25T07:26:11.038Z,539.00
2023-04-25T07:27:10.164Z,531.00
2023-04-25T07:28:11.122Z,537.00
2023-04-25T07:29:11.145Z,537.00
2023-04-25T07:30:11.234Z,539.00
2023-04-25T07:31:10.252Z,545.00
2023-04-25T07:32:11.358Z,537.00
2023-04-25T07:33:11.356Z,540.00
2023-04-25T07:34:11.403Z,538.00
2023-04-25T07:35:10.442Z,546.00
2023-04-25T07:36:11.540Z,542.00
2023-04-25T07:37:10.673Z,539.00
2023-04-25T07:38:11.650Z,544.00
2023-04-25T07:39:11.768Z,538.00
2023-04-25T07:40:11.705Z,544.00
2023-04-25T07:41:11.766Z,539.00
2023-04-25T07:42:11.837Z,543.00
2023-04-25T07:43:12.759Z,540.00
2023-04-25T07:44:11.942Z,542.00
2023-04-25T07:45:10.995Z,549.00
2023-04-25T07:46:11.050Z,546.00
2023-04-25T07:47:11.303Z,549.00
2023-04-25T07:48:11.145Z,545.00
2023-04-25T07:49:12.203Z,554.00
2023-04-25T07:50:11.229Z,545.00
2023-04-25T07:51:12.284Z,547.00
2023-04-25T07:52:12.903Z,548.00
2023-04-25T07:53:11.480Z,550.00
2023-04-25T07:54:12.422Z,540.00
2023-04-25T07:55:12.581Z,545.00
2023-04-25T07:56:12.554Z,540.00
2023-04-25T07:57:12.703Z,538.00
2023-04-25T07:58:12.574Z,550.00
2023-04-25T07:59:11.584Z,552.00
2023-04-25T08:00:11.581Z,556.00
2023-04-25T08:01:12.724Z,555.00
2023-04-25T08:02:12.882Z,557.00
2023-04-25T08:03:13.072Z,585.00
2023-04-25T08:04:12.835Z,575.00
2023-04-25T08:05:13.031Z,574.00
2023-04-25T08:06:12.112Z,580.00
2023-04-25T08:07:11.654Z,582.00
2023-04-25T08:08:12.642Z,586.00
2023-04-25T08:09:11.635Z,592.00
2023-04-25T08:10:12.620Z,593.00
2023-04-25T08:11:11.698Z,586.00
2023-04-25T08:12:12.641Z,588.00
2023-04-25T08:13:12.659Z,581.00
2023-04-25T08:14:12.689Z,580.00
2023-04-25T08:15:12.685Z,573.00
2023-04-25T08:16:12.738Z,572.00
2023-04-25T08:17:12.716Z,576.00
2023-04-25T08:18:13.096Z,579.00
2023-04-25T08:19:12.732Z,565.00
2023-04-25T08:20:11.764Z,575.00
2023-04-25T08:21:12.867Z,570.00
2023-04-25T08:22:12.790Z,574.00
2023-04-25T08:23:12.797Z,573.00
2023-04-25T08:24:11.821Z,565.00
2023-04-25T08:25:11.805Z,563.00
2023-04-25T08:26:11.821Z,566.00
2023-04-25T08:27:12.856Z,561.00
2023-04-25T08:28:11.859Z,568.00
2023-04-25T08:29:12.957Z,570.00
2023-04-25T08:30:12.998Z,561.00
2023-04-25T08:31:13.037Z,565.00
2023-04-25T08:32:13.032Z,567.00
2023-04-25T08:33:12.431Z,562.00
2023-04-25T08:34:12.023Z,566.00
2023-04-25T08:35:12.023Z,566.00
2023-04-25T08:36:13.193Z,567.00
2023-04-25T08:37:12.079Z,566.00
2023-04-25T08:38:12.086Z,568.00
2023-04-25T08:39:12.103Z,571.00
2023-04-25T08:40:12.226Z,571.00
2023-04-25T08:41:13.099Z,565.00
2023-04-25T08:42:12.272Z,567.00
2023-04-25T08:43:13.106Z,568.00
2023-04-25T08:44:12.152Z,569.00
2023-04-25T08:45:12.137Z,564.00
2023-04-25T08:46:13.144Z,565.00
2023-04-25T08:47:13.442Z,561.00
2023-04-25T08:48:13.181Z,563.00
2023-04-25T08:49:13.150Z,559.00
2023-04-25T08:50:12.109Z,553.00
2023-04-25T08:51:13.098Z,549.00
2023-04-25T08:52:12.100Z,556.00
2023-04-25T08:53:13.109Z,554.00
2023-04-25T08:55:13.115Z,552.00
2023-04-25T08:56:12.097Z,552.00
2023-04-25T08:57:13.089Z,554.00
2023-04-25T08:58:13.283Z,554.00
2023-04-25T08:59:12.074Z,553.00
2023-04-25T09:00:12.176Z,553.00
2023-04-25T09:01:13.141Z,557.00
2023-04-25T09:02:13.164Z,557.00
2023-04-25T09:03:13.350Z,555.00
2023-04-25T09:04:12.142Z,550.00
2023-04-25T09:05:13.031Z,556.00
2023-04-25T09:06:13.036Z,546.00
2023-04-25T09:07:13.021Z,554.00
2023-04-25T09:08:12.005Z,548.00
2023-04-25T09:09:13.004Z,555.00
2023-04-25T09:10:12.993Z,550.00
2023-04-25T09:10:28.945Z,552.00
2023-04-25T09:11:12.983Z,552.00
2023-04-25T09:12:13.000Z,562.00
2023-04-25T09:13:12.968Z,559.00
2023-04-25T09:14:12.964Z,553.00
2023-04-25T09:15:12.977Z,553.00
2023-04-25T09:16:12.000Z,563.00
2023-04-25T09:17:13.050Z,569.00
2023-04-25T09:18:13.011Z,570.00
2023-04-25T09:19:12.943Z,566.00
2023-04-25T09:20:11.930Z,560.00
2023-04-25T09:21:14.772Z,559.00
2023-04-25T09:22:12.916Z,568.00
2023-04-25T09:23:11.900Z,564.00
2023-04-25T09:24:11.891Z,565.00
2023-04-25T09:25:12.954Z,563.00
2023-04-25T09:26:12.904Z,556.00
2023-04-25T09:27:12.876Z,561.00
2023-04-25T09:28:12.863Z,561.00
2023-04-25T09:29:12.876Z,554.00
2023-04-25T09:30:11.852Z,562.00
2023-04-25T09:31:12.848Z,564.00
2023-04-25T09:32:13.051Z,559.00
2023-04-25T09:33:12.952Z,559.00
2023-04-25T09:34:12.876Z,552.00
2023-04-25T09:35:11.820Z,565.00
2023-04-25T09:36:12.810Z,585.00
2023-04-25T09:37:12.791Z,582.00
2023-04-25T09:38:12.826Z,596.00
2023-04-25T09:39:12.850Z,590.00
2023-04-25T09:40:12.786Z,592.00
2023-04-25T09:41:12.935Z,598.00
2023-04-25T09:42:12.761Z,597.00
2023-04-25T09:43:12.776Z,598.00
2023-04-25T09:44:12.749Z,595.00
2023-04-25T09:45:12.740Z,592.00
2023-04-25T09:46:11.761Z,602.00
2023-04-25T09:47:11.745Z,601.00
2023-04-25T09:48:11.836Z,591.00
2023-04-25T09:49:12.733Z,589.00
2023-04-25T09:50:11.769Z,585.00
2023-04-25T09:51:12.728Z,581.00
2023-04-25T09:52:11.715Z,585.00
2023-04-25T09:53:12.807Z,578.00
2023-04-25T09:54:12.698Z,570.00
2023-04-25T09:55:12.693Z,569.00
2023-04-25T09:56:11.704Z,569.00
2023-04-25T09:57:11.758Z,574.00
2023-04-25T09:58:12.836Z,579.00
2023-04-25T09:59:11.995Z,579.00
2023-04-25T10:00:12.005Z,574.00
2023-04-25T10:01:13.074Z,579.00
2023-04-25T10:02:13.356Z,576.00
2023-04-25T10:03:13.425Z,580.00
2023-04-25T10:04:13.510Z,582.00
2023-04-25T10:05:12.465Z,583.00
2023-04-25T10:06:13.604Z,588.00
2023-04-25T10:07:13.377Z,592.00
2023-04-25T10:08:13.409Z,597.00
2023-04-25T10:09:13.532Z,605.00
2023-04-25T10:10:13.532Z,604.00
2023-04-25T10:11:13.574Z,596.00
2023-04-25T10:12:13.627Z,567.00
2023-04-25T10:13:13.713Z,556.00
2023-04-25T10:14:12.716Z,527.00
2023-04-25T10:15:13.852Z,498.00
2023-04-25T10:16:12.880Z,509.00
2023-04-25T10:17:12.914Z,500.00
2023-04-25T10:18:13.881Z,492.00
2023-04-25T10:19:12.845Z,507.00
2023-04-25T10:20:13.857Z,504.00
2023-04-25T10:21:13.836Z,500.00
2023-04-25T10:22:12.880Z,490.00
2023-04-25T10:23:13.959Z,509.00
2023-04-25T10:24:13.938Z,506.00
2023-04-25T10:25:14.986Z,506.00
2023-04-25T10:26:14.419Z,503.00
2023-04-25T10:27:13.955Z,502.00
2023-04-25T10:28:14.045Z,500.00
2023-04-25T10:29:13.115Z,494.00
2023-04-25T10:30:13.119Z,504.00
2023-04-25T10:31:13.228Z,526.00
2023-04-25T10:32:14.300Z,562.00
2023-04-25T10:33:13.303Z,564.00
2023-04-25T10:34:13.381Z,546.00
2023-04-25T10:35:14.398Z,501.00
2023-04-25T10:36:13.416Z,410.00
2023-04-25T10:37:14.449Z,400.00
2023-04-25T10:38:14.519Z,447.00
2023-04-25T10:39:14.545Z,636.00
2023-04-25T10:40:14.645Z,601.00
2023-04-25T10:41:14.650Z,468.00
2023-04-25T10:42:14.676Z,400.00
2023-04-25T10:43:15.146Z,400.00
2023-04-25T10:44:13.745Z,400.00
2023-04-25T10:45:14.795Z,450.00
2023-04-25T10:46:14.875Z,449.00
2023-04-25T10:47:13.856Z,425.00
2023-04-25T10:48:15.329Z,949.00
2023-04-25T10:49:16.194Z,1087.00
2023-04-25T10:50:14.909Z,1054.00
2023-04-25T10:51:13.923Z,1137.00
2023-04-25T10:52:14.945Z,1197.00
2023-04-25T10:53:13.960Z,1292.00
2023-04-25T10:54:15.082Z,1399.00
2023-04-25T10:55:14.019Z,1483.00
2023-04-25T10:56:15.041Z,1598.00
2023-04-25T10:57:14.073Z,1646.00
2023-04-25T10:58:14.056Z,1729.00
2023-04-25T10:59:15.091Z,1791.00
2023-04-25T11:00:15.199Z,1850.00
2023-04-25T11:01:14.234Z,1931.00
2023-04-25T11:02:15.336Z,1985.00
2023-04-25T11:03:14.408Z,1998.00
2023-04-25T11:04:15.661Z,2059.00
2023-04-25T11:05:14.384Z,2065.00
2023-04-25T11:06:14.388Z,2091.00
2023-04-25T11:07:15.429Z,2122.00
2023-04-25T11:08:14.621Z,2197.00
2023-04-25T11:09:15.511Z,2215.00
2023-04-25T11:10:15.573Z,2232.00
2023-04-25T11:11:15.542Z,2236.00
2023-04-25T11:12:15.564Z,2219.00
2023-04-25T11:13:15.568Z,2210.00
2023-04-25T11:14:14.590Z,2184.00
2023-04-25T11:15:14.682Z,2235.00
2023-04-25T11:16:23.673Z,2248.00
2023-04-25T11:17:15.798Z,2249.00
2023-04-25T11:18:15.708Z,2254.00
2023-04-25T11:19:15.666Z,2267.00
2023-04-25T11:20:14.607Z,2267.00
2023-04-25T11:21:15.666Z,2291.00
2023-04-25T11:22:15.560Z,2275.00
2023-04-25T11:23:17.336Z,2333.00
2023-04-25T11:24:15.669Z,2322.00
2023-04-25T11:25:14.545Z,2372.00
2023-04-25T11:26:15.666Z,2354.00
2023-04-25T11:27:15.535Z,2355.00
2023-04-25T11:28:17.360Z,2389.00
2023-04-25T11:29:15.519Z,2390.00
2023-04-25T11:30:15.518Z,2401.00
2023-04-25T11:31:14.505Z,2408.00
2023-04-25T11:32:15.663Z,2429.00
2023-04-25T11:33:15.538Z,2437.00
2023-04-25T11:34:15.502Z,2463.00
2023-04-25T11:35:14.483Z,2474.00
2023-04-25T11:36:15.482Z,2478.00
2023-04-25T11:37:15.476Z,2501.00
2023-04-25T11:38:14.833Z,2495.00
2023-04-25T11:39:14.467Z,2486.00
2023-04-25T11:40:14.431Z,2474.00
2023-04-25T11:41:14.476Z,2453.00
2023-04-25T11:42:14.456Z,2459.00
2023-04-25T11:43:15.461Z,2426.00
2023-04-25T11:44:15.426Z,2420.00
2023-04-25T11:45:14.411Z,2409.00
2023-04-25T11:46:14.443Z,2373.00
2023-04-25T11:47:15.410Z,2394.00
2023-04-25T11:48:15.511Z,2380.00
2023-04-25T11:49:15.376Z,2362.00
2023-04-25T11:50:15.414Z,2368.00
2023-04-25T11:51:14.369Z,2351.00
2023-04-25T11:52:14.348Z,2349.00
2023-04-25T11:53:15.378Z,2348.00
2023-04-25T11:54:14.393Z,2334.00
2023-04-25T11:55:15.379Z,2281.00
2023-04-25T11:56:15.392Z,2261.00
2023-04-25T11:57:15.440Z,2271.00
2023-04-25T11:58:15.541Z,2254.00
2023-04-25T11:59:14.500Z,2248.00
2023-04-25T12:00:17.443Z,2260.00
2023-04-25T12:01:15.517Z,2246.00
2023-04-25T12:02:15.613Z,2236.00
2023-04-25T12:03:14.641Z,2224.00
2023-04-25T12:04:14.977Z,2224.00
2023-04-25T12:05:30.478Z,2215.00
2023-04-25T12:06:15.733Z,2216.00
2023-04-25T12:07:15.527Z,2213.00
2023-04-25T12:08:15.563Z,2189.00
2023-04-25T12:09:17.386Z,2186.00
2023-04-25T12:10:15.438Z,2173.00
2023-04-25T12:11:15.455Z,2167.00
2023-04-25T12:12:16.337Z,2140.00
2023-04-25T12:13:15.461Z,2146.00
2023-04-25T12:14:14.469Z,2143.00
2023-04-25T12:15:15.409Z,2121.00
2023-04-25T12:16:14.498Z,2124.00
2023-04-25T12:17:15.395Z,2114.00
2023-04-25T12:18:15.452Z,2126.00
2023-04-25T12:19:14.382Z,2105.00
2023-04-25T12:20:14.419Z,2099.00
2023-04-25T12:21:14.362Z,2077.00
2023-04-25T12:22:15.368Z,2070.00
2023-04-25T12:23:14.356Z,2060.00
2023-04-25T12:24:15.363Z,2033.00
2023-04-25T12:25:15.365Z,2015.00
2023-04-25T12:26:15.338Z,1979.00
2023-04-25T12:27:15.317Z,2002.00
2023-04-25T12:28:15.330Z,1970.00
2023-04-25T12:29:15.314Z,1970.00
2023-04-25T12:30:15.333Z,1965.00
2023-04-25T12:31:14.307Z,1932.00
2023-04-25T12:32:15.276Z,1943.00
2023-04-25T12:33:14.295Z,1950.00
2023-04-25T12:34:15.259Z,1896.00
2023-04-25T12:35:15.272Z,1933.00
2023-04-25T12:36:14.259Z,1927.00
2023-04-25T12:37:15.250Z,1926.00
2023-04-25T12:38:15.243Z,1935.00
2023-04-25T12:39:15.229Z,1975.00
2023-04-25T12:40:15.219Z,2002.00
2023-04-25T12:41:15.235Z,2051.00
2023-04-25T12:42:14.257Z,2056.00
2023-04-25T12:43:14.253Z,2070.00
2023-04-25T12:44:14.188Z,2095.00
2023-04-25T12:45:14.254Z,2091.00
2023-04-25T12:46:15.381Z,2115.00
2023-04-25T12:47:15.367Z,2119.00
2023-04-25T12:48:14.434Z,2133.00
2023-04-25T12:49:18.683Z,2131.00
2023-04-25T12:50:15.481Z,2132.00
2023-04-25T12:51:15.477Z,2135.00
2023-04-25T12:52:15.471Z,2149.00
2023-04-25T12:53:14.481Z,2156.00
2023-04-25T12:54:14.481Z,2186.00
2023-04-25T12:55:15.470Z,2197.00
2023-04-25T12:56:15.452Z,2208.00
2023-04-25T12:57:15.484Z,2222.00
2023-04-25T12:58:14.599Z,2241.00
2023-04-25T12:59:15.449Z,2227.00
2023-04-25T13:00:15.421Z,2226.00
2023-04-25T13:01:14.438Z,2235.00
2023-04-25T13:02:14.514Z,2239.00
2023-04-25T13:03:15.606Z,2242.00
2023-04-25T13:04:15.756Z,2244.00
2023-04-25T13:05:15.643Z,2256.00
2023-04-25T13:06:15.665Z,2269.00
2023-04-25T13:07:15.697Z,2281.00
2023-04-25T13:08:15.904Z,2284.00
2023-04-25T13:09:14.826Z,2304.00
2023-04-25T13:10:16.047Z,2329.00
2023-04-25T13:11:14.949Z,2337.00
2023-04-25T13:12:15.000Z,2359.00
2023-04-25T13:13:15.053Z,2362.00
2023-04-25T13:14:15.098Z,2374.00
2023-04-25T13:15:16.164Z,2368.00
2023-04-25T13:16:16.311Z,2390.00
2023-04-25T13:17:16.293Z,2397.00
2023-04-25T13:18:16.394Z,2428.00
2023-04-25T13:19:15.389Z,2444.00
2023-04-25T13:20:15.431Z,2435.00
2023-04-25T13:21:15.544Z,2421.00
2023-04-25T13:22:15.609Z,2413.00
2023-04-25T13:23:15.640Z,2420.00
2023-04-25T13:24:15.697Z,2420.00
2023-04-25T13:25:16.742Z,2422.00
2023-04-25T13:26:16.805Z,2418.00
2023-04-25T13:27:16.886Z,2420.00
2023-04-25T13:28:16.950Z,2414.00
2023-04-25T13:29:17.016Z,2423.00
2023-04-25T13:30:16.080Z,2413.00
2023-04-25T13:31:16.125Z,2411.00
2023-04-25T13:32:17.203Z,2413.00
2023-04-25T13:33:16.236Z,2397.00
2023-04-25T13:34:17.319Z,2407.00
2023-04-25T13:35:16.365Z,2413.00
2023-04-25T13:36:17.393Z,2403.00
2023-04-25T13:37:17.462Z,2403.00
2023-04-25T13:38:17.501Z,2408.00
2023-04-25T13:39:16.563Z,2414.00
2023-04-25T13:40:17.585Z,2418.00
2023-04-25T13:41:17.639Z,2409.00
2023-04-25T13:42:16.656Z,2432.00
2023-04-25T13:43:17.728Z,2423.00
2023-04-25T13:44:17.773Z,2415.00
2023-04-25T13:45:17.817Z,2438.00
2023-04-25T13:46:35.383Z,2412.00
2023-04-25T13:47:18.107Z,2413.00
2023-04-25T13:48:16.875Z,2415.00
2023-04-25T13:49:17.880Z,2412.00
2023-04-25T13:50:17.908Z,2389.00
2023-04-25T13:51:16.844Z,2376.00
2023-04-25T13:52:17.908Z,2366.00
2023-04-25T13:53:17.839Z,2354.00
2023-04-25T13:54:17.844Z,2340.00
2023-04-25T13:55:16.816Z,2345.00
2023-04-25T13:56:16.816Z,2345.00
2023-04-25T13:57:16.822Z,2353.00
2023-04-25T13:58:17.882Z,2381.00
2023-04-25T13:59:17.864Z,2355.00
2023-04-25T14:00:16.792Z,2363.00
2023-04-25T14:01:16.815Z,2339.00
2023-04-25T14:02:17.766Z,2318.00
2023-04-25T14:03:16.815Z,2323.00
2023-04-25T14:04:16.771Z,2316.00
2023-04-25T14:05:16.853Z,2322.00
2023-04-25T14:06:17.803Z,2314.00
2023-04-25T14:07:16.736Z,2321.00
2023-04-25T14:08:16.803Z,2325.00
2023-04-25T14:09:17.785Z,2354.00
2023-04-25T14:10:16.711Z,2334.00
2023-04-25T14:11:16.705Z,2320.00
2023-04-25T14:12:17.733Z,2336.00
2023-04-25T14:13:17.707Z,2361.00
2023-04-25T14:14:16.707Z,2339.00
2023-04-25T14:15:16.684Z,2343.00
2023-04-25T14:16:16.708Z,2321.00
2023-04-25T14:17:17.694Z,2332.00
2023-04-25T14:18:17.669Z,2349.00
2023-04-25T14:19:16.654Z,2337.00
2023-04-25T14:20:16.659Z,2327.00
2023-04-25T14:21:16.680Z,2338.00
2023-04-25T14:22:17.670Z,2329.00
2023-04-25T14:23:17.644Z,2339.00
2023-04-25T14:24:17.649Z,2349.00
2023-04-25T14:25:17.634Z,2359.00
2023-04-25T14:26:17.656Z,2364.00
2023-04-25T14:27:17.642Z,2369.00
2023-04-25T14:28:17.622Z,2373.00
2023-04-25T14:29:17.624Z,2369.00
2023-04-25T14:30:17.632Z,2359.00
2023-04-25T14:31:17.614Z,2372.00
2023-04-25T14:32:17.622Z,2350.00
2023-04-25T14:33:16.667Z,2361.00
2023-04-25T14:34:17.636Z,2354.00
2023-04-25T14:35:16.610Z,2350.00
2023-04-25T14:36:16.621Z,2330.00
2023-04-25T14:37:17.618Z,2345.00
2023-04-25T14:38:16.664Z,2338.00
2023-04-25T14:39:16.630Z,2334.00
2023-04-25T14:40:17.667Z,2337.00
2023-04-25T14:41:16.663Z,2336.00
2023-04-25T14:42:17.661Z,2347.00
2023-04-25T14:43:17.694Z,2370.00
2023-04-25T14:44:16.730Z,2365.00
2023-04-25T14:45:16.795Z,2365.00
2023-04-25T14:46:17.905Z,2396.00
2023-04-25T14:47:16.889Z,2412.00
2023-04-25T14:48:18.014Z,2423.00
2023-04-25T14:49:16.962Z,2459.00
2023-04-25T14:50:18.012Z,2488.00
2023-04-25T14:51:18.038Z,2495.00
2023-04-25T14:52:18.101Z,2533.00
2023-04-25T14:53:18.142Z,2564.00
2023-04-25T14:54:17.329Z,2593.00
2023-04-25T14:55:17.411Z,2598.00
2023-04-25T14:56:18.277Z,2628.00
2023-04-25T14:57:18.345Z,2649.00
2023-04-25T14:58:17.413Z,2666.00
2023-04-25T14:59:18.470Z,2688.00
2023-04-25T15:00:17.563Z,2699.00
2023-04-25T15:01:17.586Z,2707.00
2023-04-25T15:02:17.677Z,2715.00
2023-04-25T15:03:17.946Z,2731.00
2023-04-25T15:04:18.878Z,2733.00
2023-04-25T15:05:18.849Z,2741.00
2023-04-25T15:06:18.915Z,2756.00
2023-04-25T15:07:18.946Z,2753.00
2023-04-25T15:08:19.031Z,2748.00
2023-04-25T15:09:19.343Z,2758.00
2023-04-25T15:10:19.248Z,2755.00
2023-04-25T15:11:18.203Z,2764.00
2023-04-25T15:12:19.274Z,2769.00
2023-04-25T15:13:19.351Z,2773.00
2023-04-25T15:14:18.407Z,2777.00
2023-04-25T15:15:25.998Z,2774.00
2023-04-25T15:16:19.490Z,2776.00
2023-04-25T15:17:19.440Z,2780.00
2023-04-25T15:18:18.570Z,2781.00
2023-04-25T15:19:18.434Z,2790.00
2023-04-25T15:20:19.435Z,2800.00
2023-04-25T15:21:19.414Z,2795.00
2023-04-25T15:22:18.398Z,2804.00
2023-04-25T15:23:19.414Z,2797.00
2023-04-25T15:24:18.425Z,2799.00
2023-04-25T15:25:19.400Z,2804.00
2023-04-25T15:26:19.521Z,2801.00
2023-04-25T15:27:19.359Z,2802.00
2023-04-25T15:28:19.364Z,2799.00
2023-04-25T15:29:18.350Z,2816.00
